sensor_id;sensor_type;location;lat;lon;timestamp;P1;durP1;ratioP1;P2;durP2;ratioP2
32216;SDS011;67098;51.140;4.088;2023-06-26T00:00:53;5.80;;;3.67;;
32216;SDS011;67098;51.140;4.088;2023-06-26T00:03:18;7.00;;;3.78;;
32216;SDS011;67098;51.140;4.088;2023-06-26T00:05:44;6.75;;;3.47;;
32216;SDS011;67098;51.140;4.088;2023-06-26T00:08:10;9.15;;;3.67;;
32216;SDS011;67098;51.140;4.088;2023-06-26T00:10:35;6.22;;;3.88;;
32216;SDS011;67098;51.140;4.088;2023-06-26T00:13:01;8.73;;;3.78;;
32216;SDS011;67098;51.140;4.088;2023-06-26T00:15:28;6.65;;;3.92;;
32216;SDS011;67098;51.140;4.088;2023-06-26T00:17:56;5.72;;;3.50;;
32216;SDS011;67098;51.140;4.088;2023-06-26T00:20:25;7.68;;;3.60;;
32216;SDS011;67098;51.140;4.088;2023-06-26T00:22:51;8.98;;;3.85;;
32216;SDS011;67098;51.140;4.088;2023-06-26T00:25:18;6.57;;;3.55;;
32216;SDS011;67098;51.140;4.088;2023-06-26T00:27:44;7.45;;;4.13;;
32216;SDS011;67098;51.140;4.088;2023-06-26T00:30:10;6.05;;;3.80;;
32216;SDS011;67098;51.140;4.088;2023-06-26T00:32:37;6.30;;;3.65;;
32216;SDS011;67098;51.140;4.088;2023-06-26T00:35:02;6.53;;;3.13;;
32216;SDS011;67098;51.140;4.088;2023-06-26T00:37:28;7.93;;;3.90;;
32216;SDS011;67098;51.140;4.088;2023-06-26T00:39:54;7.55;;;4.00;;
32216;SDS011;67098;51.140;4.088;2023-06-26T00:42:20;6.00;;;3.35;;
32216;SDS011;67098;51.140;4.088;2023-06-26T00:44:46;6.07;;;3.95;;
32216;SDS011;67098;51.140;4.088;2023-06-26T00:47:13;9.55;;;3.72;;
32216;SDS011;67098;51.140;4.088;2023-06-26T00:49:40;17.17;;;4.35;;
32216;SDS011;67098;51.140;4.088;2023-06-26T00:52:06;6.18;;;3.50;;
32216;SDS011;67098;51.140;4.088;2023-06-26T00:54:33;5.93;;;3.60;;
32216;SDS011;67098;51.140;4.088;2023-06-26T00:56:59;10.30;;;3.92;;
32216;SDS011;67098;51.140;4.088;2023-06-26T00:59:24;7.57;;;3.40;;
32216;SDS011;67098;51.140;4.088;2023-06-26T01:01:50;5.97;;;3.72;;
32216;SDS011;67098;51.140;4.088;2023-06-26T01:04:16;11.30;;;3.88;;
32216;SDS011;67098;51.140;4.088;2023-06-26T01:06:45;7.15;;;3.53;;
32216;SDS011;67098;51.140;4.088;2023-06-26T01:09:16;7.97;;;3.80;;
32216;SDS011;67098;51.140;4.088;2023-06-26T01:14:12;8.63;;;3.60;;
32216;SDS011;67098;51.140;4.088;2023-06-26T01:16:38;11.20;;;3.83;;
32216;SDS011;67098;51.140;4.088;2023-06-26T01:19:13;13.60;;;4.15;;
32216;SDS011;67098;51.140;4.088;2023-06-26T01:21:49;8.27;;;3.50;;
32216;SDS011;67098;51.140;4.088;2023-06-26T01:24:22;11.65;;;4.00;;
32216;SDS011;67098;51.140;4.088;2023-06-26T01:26:52;11.48;;;4.30;;
32216;SDS011;67098;51.140;4.088;2023-06-26T01:29:19;9.85;;;3.80;;
32216;SDS011;67098;51.140;4.088;2023-06-26T01:31:46;7.20;;;3.80;;
32216;SDS011;67098;51.140;4.088;2023-06-26T01:34:17;11.98;;;4.75;;
32216;SDS011;67098;51.140;4.088;2023-06-26T01:36:44;7.03;;;3.72;;
32216;SDS011;67098;51.140;4.088;2023-06-26T01:39:12;9.85;;;4.10;;
32216;SDS011;67098;51.140;4.088;2023-06-26T01:41:41;10.07;;;4.97;;
32216;SDS011;67098;51.140;4.088;2023-06-26T01:55:03;10.27;;;4.53;;
32216;SDS011;67098;51.140;4.088;2023-06-26T01:57:47;13.43;;;4.53;;
32216;SDS011;67098;51.140;4.088;2023-06-26T02:00:15;9.93;;;4.35;;
32216;SDS011;67098;51.140;4.088;2023-06-26T02:02:45;11.00;;;4.25;;
32216;SDS011;67098;51.140;4.088;2023-06-26T02:05:11;12.43;;;4.20;;
32216;SDS011;67098;51.140;4.088;2023-06-26T02:07:37;11.98;;;4.35;;
32216;SDS011;67098;51.140;4.088;2023-06-26T02:10:04;12.25;;;4.45;;
32216;SDS011;67098;51.140;4.088;2023-06-26T02:12:30;8.70;;;4.13;;
32216;SDS011;67098;51.140;4.088;2023-06-26T02:14:55;12.05;;;4.43;;
32216;SDS011;67098;51.140;4.088;2023-06-26T02:17:21;7.93;;;3.65;;
32216;SDS011;67098;51.140;4.088;2023-06-26T02:19:47;12.57;;;4.72;;
32216;SDS011;67098;51.140;4.088;2023-06-26T02:22:16;8.70;;;4.28;;
32216;SDS011;67098;51.140;4.088;2023-06-26T02:24:42;11.13;;;4.07;;
32216;SDS011;67098;51.140;4.088;2023-06-26T02:27:09;11.68;;;4.65;;
32216;SDS011;67098;51.140;4.088;2023-06-26T02:29:35;11.23;;;4.75;;
32216;SDS011;67098;51.140;4.088;2023-06-26T02:32:01;9.95;;;3.95;;
32216;SDS011;67098;51.140;4.088;2023-06-26T02:34:27;14.38;;;4.68;;
32216;SDS011;67098;51.140;4.088;2023-06-26T02:36:53;13.88;;;4.90;;
32216;SDS011;67098;51.140;4.088;2023-06-26T02:39:20;12.98;;;4.60;;
32216;SDS011;67098;51.140;4.088;2023-06-26T02:41:46;12.32;;;4.68;;
32216;SDS011;67098;51.140;4.088;2023-06-26T02:44:12;12.98;;;4.78;;
32216;SDS011;67098;51.140;4.088;2023-06-26T02:46:39;21.92;;;5.40;;
32216;SDS011;67098;51.140;4.088;2023-06-26T02:49:05;16.60;;;5.47;;
32216;SDS011;67098;51.140;4.088;2023-06-26T02:51:32;19.02;;;4.47;;
32216;SDS011;67098;51.140;4.088;2023-06-26T02:53:58;16.75;;;4.90;;
32216;SDS011;67098;51.140;4.088;2023-06-26T02:56:25;15.55;;;4.60;;
32216;SDS011;67098;51.140;4.088;2023-06-26T02:58:54;15.38;;;4.80;;
32216;SDS011;67098;51.140;4.088;2023-06-26T03:01:20;14.50;;;4.70;;
32216;SDS011;67098;51.140;4.088;2023-06-26T03:03:46;17.30;;;5.18;;
32216;SDS011;67098;51.140;4.088;2023-06-26T03:06:13;13.98;;;5.10;;
32216;SDS011;67098;51.140;4.088;2023-06-26T03:08:40;14.18;;;4.45;;
32216;SDS011;67098;51.140;4.088;2023-06-26T03:11:06;14.02;;;5.40;;
32216;SDS011;67098;51.140;4.088;2023-06-26T03:13:33;14.70;;;5.10;;
32216;SDS011;67098;51.140;4.088;2023-06-26T03:16:00;13.35;;;4.90;;
32216;SDS011;67098;51.140;4.088;2023-06-26T03:18:26;15.93;;;5.20;;
32216;SDS011;67098;51.140;4.088;2023-06-26T03:20:52;20.88;;;5.68;;
32216;SDS011;67098;51.140;4.088;2023-06-26T03:23:21;17.30;;;4.60;;
32216;SDS011;67098;51.140;4.088;2023-06-26T03:25:47;16.08;;;5.43;;
32216;SDS011;67098;51.140;4.088;2023-06-26T03:28:13;17.75;;;5.05;;
32216;SDS011;67098;51.140;4.088;2023-06-26T03:30:39;22.45;;;4.70;;
32216;SDS011;67098;51.140;4.088;2023-06-26T03:33:05;18.45;;;4.60;;
32216;SDS011;67098;51.140;4.088;2023-06-26T03:35:31;22.83;;;5.28;;
32216;SDS011;67098;51.140;4.088;2023-06-26T03:37:57;16.77;;;4.57;;
32216;SDS011;67098;51.140;4.088;2023-06-26T03:40:23;18.60;;;5.05;;
32216;SDS011;67098;51.140;4.088;2023-06-26T03:42:49;15.57;;;4.20;;
32216;SDS011;67098;51.140;4.088;2023-06-26T03:45:15;20.33;;;5.00;;
32216;SDS011;67098;51.140;4.088;2023-06-26T03:47:41;17.33;;;4.75;;
32216;SDS011;67098;51.140;4.088;2023-06-26T03:50:07;17.23;;;5.03;;
32216;SDS011;67098;51.140;4.088;2023-06-26T03:52:33;14.32;;;5.10;;
32216;SDS011;67098;51.140;4.088;2023-06-26T03:54:58;12.40;;;4.38;;
32216;SDS011;67098;51.140;4.088;2023-06-26T03:57:25;19.13;;;4.60;;
32216;SDS011;67098;51.140;4.088;2023-06-26T03:59:51;19.52;;;5.40;;
32216;SDS011;67098;51.140;4.088;2023-06-26T04:02:17;16.85;;;4.97;;
32216;SDS011;67098;51.140;4.088;2023-06-26T04:04:43;19.02;;;4.97;;
32216;SDS011;67098;51.140;4.088;2023-06-26T04:07:09;16.80;;;4.18;;
32216;SDS011;67098;51.140;4.088;2023-06-26T04:09:35;20.85;;;5.25;;
32216;SDS011;67098;51.140;4.088;2023-06-26T04:12:01;15.77;;;5.30;;
32216;SDS011;67098;51.140;4.088;2023-06-26T04:14:27;20.33;;;4.68;;
32216;SDS011;67098;51.140;4.088;2023-06-26T04:16:53;14.73;;;4.35;;
32216;SDS011;67098;51.140;4.088;2023-06-26T04:19:19;14.82;;;4.35;;
32216;SDS011;67098;51.140;4.088;2023-06-26T04:21:44;21.88;;;5.47;;
32216;SDS011;67098;51.140;4.088;2023-06-26T04:24:11;20.83;;;5.00;;
32216;SDS011;67098;51.140;4.088;2023-06-26T04:26:36;22.63;;;4.88;;
32216;SDS011;67098;51.140;4.088;2023-06-26T04:29:06;17.52;;;4.45;;
32216;SDS011;67098;51.140;4.088;2023-06-26T04:31:32;13.05;;;3.65;;
32216;SDS011;67098;51.140;4.088;2023-06-26T04:33:57;15.98;;;4.32;;
32216;SDS011;67098;51.140;4.088;2023-06-26T04:36:24;19.85;;;5.22;;
32216;SDS011;67098;51.140;4.088;2023-06-26T04:38:53;17.60;;;4.47;;
32216;SDS011;67098;51.140;4.088;2023-06-26T04:41:20;18.08;;;4.90;;
32216;SDS011;67098;51.140;4.088;2023-06-26T04:43:46;19.00;;;4.65;;
32216;SDS011;67098;51.140;4.088;2023-06-26T04:46:12;16.48;;;4.45;;
32216;SDS011;67098;51.140;4.088;2023-06-26T04:48:38;21.45;;;4.35;;
32216;SDS011;67098;51.140;4.088;2023-06-26T04:51:04;17.35;;;4.43;;
32216;SDS011;67098;51.140;4.088;2023-06-26T04:53:29;20.65;;;4.25;;
32216;SDS011;67098;51.140;4.088;2023-06-26T04:55:55;19.42;;;4.22;;
32216;SDS011;67098;51.140;4.088;2023-06-26T04:58:21;18.60;;;4.07;;
32216;SDS011;67098;51.140;4.088;2023-06-26T05:00:47;14.60;;;4.20;;
32216;SDS011;67098;51.140;4.088;2023-06-26T05:03:13;16.92;;;3.78;;
32216;SDS011;67098;51.140;4.088;2023-06-26T05:05:42;16.92;;;4.55;;
32216;SDS011;67098;51.140;4.088;2023-06-26T05:10:40;15.82;;;4.15;;
32216;SDS011;67098;51.140;4.088;2023-06-26T05:13:06;21.50;;;4.00;;
32216;SDS011;67098;51.140;4.088;2023-06-26T05:15:31;17.23;;;4.50;;
32216;SDS011;67098;51.140;4.088;2023-06-26T05:17:57;15.52;;;3.53;;
32216;SDS011;67098;51.140;4.088;2023-06-26T05:20:23;11.05;;;3.92;;
32216;SDS011;67098;51.140;4.088;2023-06-26T05:22:49;20.52;;;3.58;;
32216;SDS011;67098;51.140;4.088;2023-06-26T05:25:15;14.73;;;4.07;;
32216;SDS011;67098;51.140;4.088;2023-06-26T05:27:41;15.35;;;4.07;;
32216;SDS011;67098;51.140;4.088;2023-06-26T05:30:07;15.30;;;3.67;;
32216;SDS011;67098;51.140;4.088;2023-06-26T05:32:34;15.27;;;3.67;;
32216;SDS011;67098;51.140;4.088;2023-06-26T05:35:02;14.68;;;3.83;;
32216;SDS011;67098;51.140;4.088;2023-06-26T05:37:31;16.13;;;3.80;;
32216;SDS011;67098;51.140;4.088;2023-06-26T05:39:58;11.80;;;3.20;;
32216;SDS011;67098;51.140;4.088;2023-06-26T05:42:26;16.17;;;4.13;;
32216;SDS011;67098;51.140;4.088;2023-06-26T05:44:53;15.65;;;3.63;;
32216;SDS011;67098;51.140;4.088;2023-06-26T05:47:19;17.67;;;3.88;;
32216;SDS011;67098;51.140;4.088;2023-06-26T05:49:45;14.68;;;3.33;;
32216;SDS011;67098;51.140;4.088;2023-06-26T05:52:11;15.05;;;3.50;;
32216;SDS011;67098;51.140;4.088;2023-06-26T05:54:37;17.83;;;3.70;;
32216;SDS011;67098;51.140;4.088;2023-06-26T05:57:03;12.73;;;3.35;;
32216;SDS011;67098;51.140;4.088;2023-06-26T05:59:31;16.75;;;3.58;;
32216;SDS011;67098;51.140;4.088;2023-06-26T06:01:57;15.88;;;3.60;;
32216;SDS011;67098;51.140;4.088;2023-06-26T06:04:23;10.40;;;2.83;;
32216;SDS011;67098;51.140;4.088;2023-06-26T06:06:48;11.07;;;3.22;;
32216;SDS011;67098;51.140;4.088;2023-06-26T06:09:14;7.90;;;2.42;;
32216;SDS011;67098;51.140;4.088;2023-06-26T06:11:41;14.05;;;3.40;;
32216;SDS011;67098;51.140;4.088;2023-06-26T06:14:07;8.27;;;2.13;;
32216;SDS011;67098;51.140;4.088;2023-06-26T06:16:32;8.32;;;1.90;;
32216;SDS011;67098;51.140;4.088;2023-06-26T06:18:58;11.05;;;2.10;;
32216;SDS011;67098;51.140;4.088;2023-06-26T06:21:24;8.57;;;2.05;;
32216;SDS011;67098;51.140;4.088;2023-06-26T06:23:50;7.60;;;2.33;;
32216;SDS011;67098;51.140;4.088;2023-06-26T06:26:15;8.65;;;1.75;;
32216;SDS011;67098;51.140;4.088;2023-06-26T06:28:41;6.55;;;2.10;;
32216;SDS011;67098;51.140;4.088;2023-06-26T06:31:07;7.80;;;1.63;;
32216;SDS011;67098;51.140;4.088;2023-06-26T06:33:33;9.82;;;2.13;;
32216;SDS011;67098;51.140;4.088;2023-06-26T06:35:59;5.30;;;1.27;;
32216;SDS011;67098;51.140;4.088;2023-06-26T06:38:25;4.90;;;1.50;;
32216;SDS011;67098;51.140;4.088;2023-06-26T06:40:51;4.60;;;1.52;;
32216;SDS011;67098;51.140;4.088;2023-06-26T06:43:16;3.38;;;1.00;;
32216;SDS011;67098;51.140;4.088;2023-06-26T06:45:42;3.38;;;1.40;;
32216;SDS011;67098;51.140;4.088;2023-06-26T06:48:08;4.95;;;1.40;;
32216;SDS011;67098;51.140;4.088;2023-06-26T06:50:33;6.75;;;1.42;;
32216;SDS011;67098;51.140;4.088;2023-06-26T06:52:59;5.40;;;1.92;;
32216;SDS011;67098;51.140;4.088;2023-06-26T06:55:25;7.45;;;1.60;;
32216;SDS011;67098;51.140;4.088;2023-06-26T06:57:50;6.57;;;1.75;;
32216;SDS011;67098;51.140;4.088;2023-06-26T07:00:17;7.13;;;1.70;;
32216;SDS011;67098;51.140;4.088;2023-06-26T07:02:43;5.13;;;1.30;;
32216;SDS011;67098;51.140;4.088;2023-06-26T07:05:10;5.68;;;1.63;;
32216;SDS011;67098;51.140;4.088;2023-06-26T07:07:36;3.17;;;1.20;;
32216;SDS011;67098;51.140;4.088;2023-06-26T07:10:13;7.32;;;1.50;;
32216;SDS011;67098;51.140;4.088;2023-06-26T07:12:39;9.38;;;1.23;;
32216;SDS011;67098;51.140;4.088;2023-06-26T07:15:05;13.48;;;1.38;;
32216;SDS011;67098;51.140;4.088;2023-06-26T07:17:32;7.35;;;1.90;;
32216;SDS011;67098;51.140;4.088;2023-06-26T07:19:59;7.30;;;1.40;;
32216;SDS011;67098;51.140;4.088;2023-06-26T07:22:26;8.13;;;1.48;;
32216;SDS011;67098;51.140;4.088;2023-06-26T07:24:51;6.07;;;1.30;;
32216;SDS011;67098;51.140;4.088;2023-06-26T07:27:18;6.47;;;1.55;;
32216;SDS011;67098;51.140;4.088;2023-06-26T07:29:45;4.47;;;1.27;;
32216;SDS011;67098;51.140;4.088;2023-06-26T07:32:11;8.88;;;1.65;;
32216;SDS011;67098;51.140;4.088;2023-06-26T07:34:37;4.80;;;1.48;;
32216;SDS011;67098;51.140;4.088;2023-06-26T07:37:05;8.70;;;1.45;;
32216;SDS011;67098;51.140;4.088;2023-06-26T07:39:32;6.65;;;1.40;;
32216;SDS011;67098;51.140;4.088;2023-06-26T07:41:57;9.23;;;1.83;;
32216;SDS011;67098;51.140;4.088;2023-06-26T07:44:24;6.68;;;1.90;;
32216;SDS011;67098;51.140;4.088;2023-06-26T07:46:50;8.35;;;1.70;;
32216;SDS011;67098;51.140;4.088;2023-06-26T07:49:16;6.43;;;1.77;;
32216;SDS011;67098;51.140;4.088;2023-06-26T07:51:42;8.85;;;1.40;;
32216;SDS011;67098;51.140;4.088;2023-06-26T07:54:07;3.85;;;1.55;;
32216;SDS011;67098;51.140;4.088;2023-06-26T07:59:37;3.70;;;1.27;;
32216;SDS011;67098;51.140;4.088;2023-06-26T08:02:04;5.97;;;1.30;;
32216;SDS011;67098;51.140;4.088;2023-06-26T08:04:30;7.35;;;1.48;;
32216;SDS011;67098;51.140;4.088;2023-06-26T08:06:58;5.65;;;1.33;;
32216;SDS011;67098;51.140;4.088;2023-06-26T08:09:27;6.60;;;1.20;;
32216;SDS011;67098;51.140;4.088;2023-06-26T08:11:54;4.15;;;1.60;;
32216;SDS011;67098;51.140;4.088;2023-06-26T08:14:20;3.60;;;1.23;;
32216;SDS011;67098;51.140;4.088;2023-06-26T08:16:46;9.10;;;1.50;;
32216;SDS011;67098;51.140;4.088;2023-06-26T08:19:12;4.63;;;1.40;;
32216;SDS011;67098;51.140;4.088;2023-06-26T08:21:40;5.85;;;1.98;;
32216;SDS011;67098;51.140;4.088;2023-06-26T08:24:06;7.35;;;1.50;;
32216;SDS011;67098;51.140;4.088;2023-06-26T08:26:32;7.65;;;2.20;;
32216;SDS011;67098;51.140;4.088;2023-06-26T08:28:58;6.80;;;1.80;;
32216;SDS011;67098;51.140;4.088;2023-06-26T08:31:24;6.88;;;1.80;;
32216;SDS011;67098;51.140;4.088;2023-06-26T08:33:50;3.83;;;1.13;;
32216;SDS011;67098;51.140;4.088;2023-06-26T08:36:16;4.43;;;1.17;;
32216;SDS011;67098;51.140;4.088;2023-06-26T08:38:41;8.18;;;1.80;;
32216;SDS011;67098;51.140;4.088;2023-06-26T08:41:08;8.02;;;1.83;;
32216;SDS011;67098;51.140;4.088;2023-06-26T08:43:35;7.97;;;2.20;;
32216;SDS011;67098;51.140;4.088;2023-06-26T08:46:01;6.18;;;2.25;;
32216;SDS011;67098;51.140;4.088;2023-06-26T08:48:29;8.68;;;1.92;;
32216;SDS011;67098;51.140;4.088;2023-06-26T08:51:03;8.40;;;2.50;;
32216;SDS011;67098;51.140;4.088;2023-06-26T08:56:11;7.93;;;1.90;;
32216;SDS011;67098;51.140;4.088;2023-06-26T08:58:40;7.22;;;1.85;;
32216;SDS011;67098;51.140;4.088;2023-06-26T09:01:05;5.45;;;1.77;;
32216;SDS011;67098;51.140;4.088;2023-06-26T09:03:33;7.28;;;1.60;;
32216;SDS011;67098;51.140;4.088;2023-06-26T09:05:59;5.63;;;1.80;;
32216;SDS011;67098;51.140;4.088;2023-06-26T09:08:25;9.57;;;1.95;;
32216;SDS011;67098;51.140;4.088;2023-06-26T09:10:51;8.77;;;2.05;;
32216;SDS011;67098;51.140;4.088;2023-06-26T09:13:18;4.65;;;1.50;;
32216;SDS011;67098;51.140;4.088;2023-06-26T09:15:44;6.40;;;1.55;;
32216;SDS011;67098;51.140;4.088;2023-06-26T09:18:10;8.05;;;1.75;;
32216;SDS011;67098;51.140;4.088;2023-06-26T09:20:37;9.38;;;2.17;;
32216;SDS011;67098;51.140;4.088;2023-06-26T09:23:02;9.38;;;1.90;;
32216;SDS011;67098;51.140;4.088;2023-06-26T09:25:29;8.48;;;1.90;;
32216;SDS011;67098;51.140;4.088;2023-06-26T09:27:55;6.93;;;1.98;;
32216;SDS011;67098;51.140;4.088;2023-06-26T09:30:22;10.23;;;1.67;;
32216;SDS011;67098;51.140;4.088;2023-06-26T09:32:48;9.02;;;2.08;;
32216;SDS011;67098;51.140;4.088;2023-06-26T09:35:15;7.45;;;1.67;;
32216;SDS011;67098;51.140;4.088;2023-06-26T09:37:42;3.67;;;1.27;;
32216;SDS011;67098;51.140;4.088;2023-06-26T09:40:08;6.47;;;1.52;;
32216;SDS011;67098;51.140;4.088;2023-06-26T09:42:35;5.50;;;1.83;;
32216;SDS011;67098;51.140;4.088;2023-06-26T09:45:01;9.25;;;1.80;;
32216;SDS011;67098;51.140;4.088;2023-06-26T09:47:29;3.45;;;1.40;;
32216;SDS011;67098;51.140;4.088;2023-06-26T09:49:56;6.63;;;1.73;;
32216;SDS011;67098;51.140;4.088;2023-06-26T09:52:21;7.78;;;1.63;;
32216;SDS011;67098;51.140;4.088;2023-06-26T09:54:51;6.90;;;1.58;;
32216;SDS011;67098;51.140;4.088;2023-06-26T09:57:34;3.67;;;1.50;;
32216;SDS011;67098;51.140;4.088;2023-06-26T10:00:00;5.25;;;1.55;;
32216;SDS011;67098;51.140;4.088;2023-06-26T10:02:29;7.70;;;1.48;;
32216;SDS011;67098;51.140;4.088;2023-06-26T10:04:54;4.97;;;1.45;;
32216;SDS011;67098;51.140;4.088;2023-06-26T10:07:20;6.35;;;1.60;;
32216;SDS011;67098;51.140;4.088;2023-06-26T10:09:47;7.97;;;1.85;;
32216;SDS011;67098;51.140;4.088;2023-06-26T10:12:18;3.83;;;1.20;;
32216;SDS011;67098;51.140;4.088;2023-06-26T10:14:46;4.18;;;1.45;;
32216;SDS011;67098;51.140;4.088;2023-06-26T10:17:15;4.57;;;1.50;;
32216;SDS011;67098;51.140;4.088;2023-06-26T10:19:44;4.97;;;1.58;;
32216;SDS011;67098;51.140;4.088;2023-06-26T10:22:11;8.00;;;1.83;;
32216;SDS011;67098;51.140;4.088;2023-06-26T10:24:40;5.35;;;1.60;;
32216;SDS011;67098;51.140;4.088;2023-06-26T10:27:16;4.50;;;1.63;;
32216;SDS011;67098;51.140;4.088;2023-06-26T10:29:48;3.47;;;1.55;;
32216;SDS011;67098;51.140;4.088;2023-06-26T10:32:18;6.85;;;1.60;;
32216;SDS011;67098;51.140;4.088;2023-06-26T10:34:46;9.25;;;1.83;;
32216;SDS011;67098;51.140;4.088;2023-06-26T10:37:12;8.23;;;1.63;;
32216;SDS011;67098;51.140;4.088;2023-06-26T10:39:47;5.15;;;1.48;;
32216;SDS011;67098;51.140;4.088;2023-06-26T10:42:14;6.85;;;1.60;;
32216;SDS011;67098;51.140;4.088;2023-06-26T10:44:42;5.47;;;1.27;;
32216;SDS011;67098;51.140;4.088;2023-06-26T10:47:09;5.13;;;1.65;;
32216;SDS011;67098;51.140;4.088;2023-06-26T10:49:36;5.57;;;1.20;;
32216;SDS011;67098;51.140;4.088;2023-06-26T10:52:04;3.92;;;1.27;;
32216;SDS011;67098;51.140;4.088;2023-06-26T10:54:33;5.60;;;1.60;;
32216;SDS011;67098;51.140;4.088;2023-06-26T10:57:01;6.63;;;1.50;;
32216;SDS011;67098;51.140;4.088;2023-06-26T10:59:28;5.88;;;1.80;;
32216;SDS011;67098;51.140;4.088;2023-06-26T11:01:58;5.13;;;1.60;;
32216;SDS011;67098;51.140;4.088;2023-06-26T11:04:39;6.88;;;1.60;;
32216;SDS011;67098;51.140;4.088;2023-06-26T11:07:14;4.22;;;1.40;;
32216;SDS011;67098;51.140;4.088;2023-06-26T11:09:56;3.35;;;1.20;;
32216;SDS011;67098;51.140;4.088;2023-06-26T11:12:35;4.47;;;1.33;;
32216;SDS011;67098;51.140;4.088;2023-06-26T11:15:02;3.70;;;1.30;;
32216;SDS011;67098;51.140;4.088;2023-06-26T11:17:31;4.63;;;1.70;;
32216;SDS011;67098;51.140;4.088;2023-06-26T11:19:57;6.20;;;1.60;;
32216;SDS011;67098;51.140;4.088;2023-06-26T11:22:24;4.40;;;1.52;;
32216;SDS011;67098;51.140;4.088;2023-06-26T11:24:52;4.95;;;1.85;;
32216;SDS011;67098;51.140;4.088;2023-06-26T11:27:19;4.25;;;1.33;;
32216;SDS011;67098;51.140;4.088;2023-06-26T11:29:48;4.03;;;1.52;;
32216;SDS011;67098;51.140;4.088;2023-06-26T11:32:15;7.28;;;1.65;;
32216;SDS011;67098;51.140;4.088;2023-06-26T11:34:41;11.85;;;1.80;;
32216;SDS011;67098;51.140;4.088;2023-06-26T11:37:08;6.60;;;1.80;;
32216;SDS011;67098;51.140;4.088;2023-06-26T11:39:34;4.07;;;1.45;;
32216;SDS011;67098;51.140;4.088;2023-06-26T11:42:00;3.63;;;1.45;;
32216;SDS011;67098;51.140;4.088;2023-06-26T11:44:29;5.10;;;1.50;;
32216;SDS011;67098;51.140;4.088;2023-06-26T11:46:56;2.92;;;1.17;;
32216;SDS011;67098;51.140;4.088;2023-06-26T11:49:22;6.80;;;1.50;;
32216;SDS011;67098;51.140;4.088;2023-06-26T11:51:50;5.93;;;1.58;;
32216;SDS011;67098;51.140;4.088;2023-06-26T11:54:22;5.60;;;1.55;;
32216;SDS011;67098;51.140;4.088;2023-06-26T11:56:56;11.45;;;2.00;;
32216;SDS011;67098;51.140;4.088;2023-06-26T11:59:23;7.43;;;1.63;;
32216;SDS011;67098;51.140;4.088;2023-06-26T12:01:56;4.97;;;1.52;;
32216;SDS011;67098;51.140;4.088;2023-06-26T12:04:22;4.50;;;1.45;;
32216;SDS011;67098;51.140;4.088;2023-06-26T12:06:49;4.65;;;1.80;;
32216;SDS011;67098;51.140;4.088;2023-06-26T12:09:18;7.40;;;1.65;;
32216;SDS011;67098;51.140;4.088;2023-06-26T12:11:46;5.88;;;1.40;;
32216;SDS011;67098;51.140;4.088;2023-06-26T12:14:16;4.15;;;1.40;;
32216;SDS011;67098;51.140;4.088;2023-06-26T12:16:44;3.97;;;1.35;;
32216;SDS011;67098;51.140;4.088;2023-06-26T12:19:10;9.25;;;1.50;;
32216;SDS011;67098;51.140;4.088;2023-06-26T12:24:02;5.10;;;1.52;;
32216;SDS011;67098;51.140;4.088;2023-06-26T12:26:28;3.53;;;1.58;;
32216;SDS011;67098;51.140;4.088;2023-06-26T12:29:01;4.60;;;1.48;;
32216;SDS011;67098;51.140;4.088;2023-06-26T12:31:53;9.52;;;1.55;;
32216;SDS011;67098;51.140;4.088;2023-06-26T12:34:20;4.03;;;1.15;;
32216;SDS011;67098;51.140;4.088;2023-06-26T12:36:49;4.53;;;1.15;;
32216;SDS011;67098;51.140;4.088;2023-06-26T12:39:16;5.68;;;1.77;;
32216;SDS011;67098;51.140;4.088;2023-06-26T12:41:46;10.05;;;1.55;;
32216;SDS011;67098;51.140;4.088;2023-06-26T12:44:32;7.65;;;1.60;;
32216;SDS011;67098;51.140;4.088;2023-06-26T12:46:59;5.05;;;1.60;;
32216;SDS011;67098;51.140;4.088;2023-06-26T12:49:30;9.70;;;1.88;;
32216;SDS011;67098;51.140;4.088;2023-06-26T12:51:59;4.75;;;1.83;;
32216;SDS011;67098;51.140;4.088;2023-06-26T12:54:26;3.92;;;1.58;;
32216;SDS011;67098;51.140;4.088;2023-06-26T12:56:52;4.57;;;1.70;;
32216;SDS011;67098;51.140;4.088;2023-06-26T12:59:18;5.93;;;1.45;;
32216;SDS011;67098;51.140;4.088;2023-06-26T13:01:44;2.42;;;1.10;;
32216;SDS011;67098;51.140;4.088;2023-06-26T13:04:10;5.75;;;1.60;;
32216;SDS011;67098;51.140;4.088;2023-06-26T13:06:36;4.03;;;1.13;;
32216;SDS011;67098;51.140;4.088;2023-06-26T13:09:01;3.13;;;1.40;;
32216;SDS011;67098;51.140;4.088;2023-06-26T13:11:29;4.05;;;1.38;;
32216;SDS011;67098;51.140;4.088;2023-06-26T13:13:55;4.78;;;1.60;;
32216;SDS011;67098;51.140;4.088;2023-06-26T13:16:21;5.63;;;1.77;;
32216;SDS011;67098;51.140;4.088;2023-06-26T13:18:47;5.30;;;1.30;;
32216;SDS011;67098;51.140;4.088;2023-06-26T13:21:13;3.42;;;1.60;;
32216;SDS011;67098;51.140;4.088;2023-06-26T13:23:40;5.88;;;1.27;;
32216;SDS011;67098;51.140;4.088;2023-06-26T13:26:06;3.58;;;1.55;;
32216;SDS011;67098;51.140;4.088;2023-06-26T13:28:32;2.92;;;1.40;;
32216;SDS011;67098;51.140;4.088;2023-06-26T13:30:58;15.00;;;1.63;;
32216;SDS011;67098;51.140;4.088;2023-06-26T13:33:23;5.22;;;1.60;;
32216;SDS011;67098;51.140;4.088;2023-06-26T13:35:52;8.00;;;1.80;;
32216;SDS011;67098;51.140;4.088;2023-06-26T13:38:21;3.92;;;1.40;;
32216;SDS011;67098;51.140;4.088;2023-06-26T13:40:54;3.70;;;1.25;;
32216;SDS011;67098;51.140;4.088;2023-06-26T13:43:22;4.60;;;1.48;;
32216;SDS011;67098;51.140;4.088;2023-06-26T13:45:48;3.25;;;1.08;;
32216;SDS011;67098;51.140;4.088;2023-06-26T13:48:14;2.97;;;1.13;;
32216;SDS011;67098;51.140;4.088;2023-06-26T13:50:40;3.63;;;1.20;;
32216;SDS011;67098;51.140;4.088;2023-06-26T13:53:06;4.43;;;1.40;;
32216;SDS011;67098;51.140;4.088;2023-06-26T13:55:32;7.28;;;1.60;;
32216;SDS011;67098;51.140;4.088;2023-06-26T13:57:59;3.65;;;1.40;;
32216;SDS011;67098;51.140;4.088;2023-06-26T14:00:25;2.88;;;1.10;;
32216;SDS011;67098;51.140;4.088;2023-06-26T14:02:51;3.83;;;1.27;;
32216;SDS011;67098;51.140;4.088;2023-06-26T14:05:17;7.72;;;1.23;;
32216;SDS011;67098;51.140;4.088;2023-06-26T14:07:44;4.55;;;1.33;;
32216;SDS011;67098;51.140;4.088;2023-06-26T14:10:10;4.72;;;1.30;;
32216;SDS011;67098;51.140;4.088;2023-06-26T14:12:35;5.25;;;1.58;;
32216;SDS011;67098;51.140;4.088;2023-06-26T14:15:01;5.18;;;1.15;;
32216;SDS011;67098;51.140;4.088;2023-06-26T14:17:28;6.03;;;1.40;;
32216;SDS011;67098;51.140;4.088;2023-06-26T14:19:54;2.85;;;1.27;;
32216;SDS011;67098;51.140;4.088;2023-06-26T14:22:20;4.47;;;1.23;;
32216;SDS011;67098;51.140;4.088;2023-06-26T14:24:46;3.50;;;1.25;;
32216;SDS011;67098;51.140;4.088;2023-06-26T14:27:13;5.32;;;1.40;;
32216;SDS011;67098;51.140;4.088;2023-06-26T14:29:39;5.28;;;1.48;;
32216;SDS011;67098;51.140;4.088;2023-06-26T14:32:06;5.93;;;1.30;;
32216;SDS011;67098;51.140;4.088;2023-06-26T14:34:32;3.00;;;1.10;;
32216;SDS011;67098;51.140;4.088;2023-06-26T14:36:57;3.22;;;1.27;;
32216;SDS011;67098;51.140;4.088;2023-06-26T14:39:23;5.47;;;1.60;;
32216;SDS011;67098;51.140;4.088;2023-06-26T14:41:49;5.32;;;1.20;;
32216;SDS011;67098;51.140;4.088;2023-06-26T14:44:15;2.90;;;1.13;;
32216;SDS011;67098;51.140;4.088;2023-06-26T14:46:41;3.50;;;1.35;;
32216;SDS011;67098;51.140;4.088;2023-06-26T14:49:07;3.92;;;1.33;;
32216;SDS011;67098;51.140;4.088;2023-06-26T14:51:33;3.63;;;1.08;;
32216;SDS011;67098;51.140;4.088;2023-06-26T14:53:59;5.22;;;1.38;;
32216;SDS011;67098;51.140;4.088;2023-06-26T14:56:25;3.10;;;1.45;;
32216;SDS011;67098;51.140;4.088;2023-06-26T14:58:51;6.63;;;1.42;;
32216;SDS011;67098;51.140;4.088;2023-06-26T15:01:18;3.45;;;1.08;;
32216;SDS011;67098;51.140;4.088;2023-06-26T15:03:45;3.80;;;1.25;;
32216;SDS011;67098;51.140;4.088;2023-06-26T15:06:13;4.05;;;1.42;;